Time;durP1;ratioP1;P1;durP2;ratioP2;P2;SDS_P1;SDS_P2;PMS_P1;PMS_P2;Temp;Humidity;BMP_temperature;BMP_pressure;BME280_temperature;BME280_humidity;BME280_pressure;Samples;Min_cycle;Max_cycle;Signal;HPM_P1;HPM_P2
2024/03/07 00:00:32;;;;;;;27.80;15.97;;;;;;;;;;5024314;28;20220;-89
2024/03/07 00:03:36;;;;;;;50.47;14.10;;;;;;;;;;5035693;28;20204;-89
2024/03/07 00:06:58;;;;;;;63.93;13.57;;;;;;;;;;5035921;28;20177;-89
2024/03/07 00:10:03;;;;;;;63.30;18.07;;;;;;;;;;5024382;28;20232;-89
2024/03/07 00:13:07;;;;;;;40.37;17.87;;;;;;;;;;5024545;28;20185;-89
2024/03/07 00:16:11;;;;;;;37.43;17.77;;;;;;;;;;5047576;28;20523;-90
2024/03/07 00:19:17;;;;;;;26.60;16.20;;;;;;;;;;5035836;28;20188;-89
2024/03/07 00:22:22;;;;;;;21.33;15.63;;;;;;;;;;5035861;28;20539;-89
2024/03/07 00:25:26;;;;;;;26.33;13.07;;;;;;;;;;5035799;28;20181;-88
2024/03/07 00:28:35;;;;;;;40.87;14.90;;;;;;;;;;5024299;28;20181;-89
2024/03/07 00:31:39;;;;;;;20.40;14.23;;;;;;;;;;5035396;28;20237;-91
2024/03/07 00:34:44;;;;;;;19.00;13.27;;;;;;;;;;5024128;28;20184;-90
2024/03/07 00:37:48;;;;;;;16.40;12.03;;;;;;;;;;5012890;28;20185;-90
2024/03/07 00:40:53;;;;;;;17.87;13.63;;;;;;;;;;5023350;28;20212;-90
2024/03/07 00:43:57;;;;;;;20.50;13.97;;;;;;;;;;5035134;28;20177;-90
2024/03/07 00:47:02;;;;;;;25.60;13.00;;;;;;;;;;5012696;28;20184;-90
2024/03/07 00:50:08;;;;;;;23.60;16.00;;;;;;;;;;5023031;28;20224;-90
2024/03/07 00:53:12;;;;;;;21.30;14.10;;;;;;;;;;5034771;28;20536;-90
2024/03/07 00:56:16;;;;;;;20.93;13.93;;;;;;;;;;5035296;28;20181;-90
2024/03/07 00:59:20;;;;;;;23.90;15.23;;;;;;;;;;5034931;28;20622;-90
2024/03/07 01:02:25;;;;;;;25.20;14.97;;;;;;;;;;5034669;28;20196;-90
2024/03/07 01:05:29;;;;;;;25.33;15.10;;;;;;;;;;5024110;28;20173;-90
2024/03/07 01:08:36;;;;;;;23.53;15.03;;;;;;;;;;5023229;28;20185;-90
2024/03/07 01:11:47;;;;;;;25.50;16.47;;;;;;;;;;5011409;28;20233;-90
2024/03/07 01:14:52;;;;;;;25.33;15.77;;;;;;;;;;5011910;28;20177;-90
2024/03/07 01:17:56;;;;;;;23.63;16.17;;;;;;;;;;5034893;28;20185;-90
2024/03/07 01:21:01;;;;;;;28.70;16.70;;;;;;;;;;5034332;28;20212;-90
2024/03/07 01:24:05;;;;;;;24.40;16.07;;;;;;;;;;5022965;28;20535;-90
2024/03/07 01:27:10;;;;;;;32.90;18.63;;;;;;;;;;5034128;28;20189;-90
2024/03/07 01:30:14;;;;;;;28.97;17.67;;;;;;;;;;5033981;28;20224;-90
2024/03/07 01:33:19;;;;;;;32.63;19.57;;;;;;;;;;5022869;28;20181;-90
2024/03/07 01:36:23;;;;;;;36.30;19.67;;;;;;;;;;5022776;28;20519;-89
2024/03/07 01:39:27;;;;;;;36.80;21.07;;;;;;;;;;5033776;28;20531;-90
2024/03/07 01:42:31;;;;;;;34.67;20.47;;;;;;;;;;5034940;28;20180;-90
2024/03/07 01:45:37;;;;;;;34.30;21.30;;;;;;;;;;5034387;28;20180;-90
2024/03/07 01:48:41;;;;;;;35.20;21.77;;;;;;;;;;5022786;28;20181;-90
2024/03/07 01:51:46;;;;;;;35.50;22.83;;;;;;;;;;5034067;28;20720;-90
2024/03/07 01:54:50;;;;;;;35.03;21.27;;;;;;;;;;5033924;28;20531;-90
2024/03/07 01:58:00;;;;;;;37.53;21.37;;;;;;;;;;5033896;28;20181;-90
2024/03/07 02:01:05;;;;;;;35.90;21.13;;;;;;;;;;5021724;28;20212;-90
2024/03/07 02:04:09;;;;;;;34.10;21.37;;;;;;;;;;5033786;28;20181;-90
2024/03/07 02:07:13;;;;;;;35.27;22.17;;;;;;;;;;5022898;28;20622;-89
2024/03/07 02:10:18;;;;;;;40.37;23.37;;;;;;;;;;5033596;28;20217;-90
2024/03/07 02:13:22;;;;;;;41.70;23.77;;;;;;;;;;5022505;28;20621;-87
2024/03/07 02:16:26;;;;;;;39.00;23.87;;;;;;;;;;5022778;28;20180;-88
2024/03/07 02:19:32;;;;;;;37.03;23.10;;;;;;;;;;5033691;28;20177;-88
2024/03/07 02:22:39;;;;;;;42.90;24.13;;;;;;;;;;5033806;28;20177;-88
2024/03/07 02:25:43;;;;;;;42.67;24.27;;;;;;;;;;5033665;28;20185;-88
2024/03/07 02:28:47;;;;;;;42.53;24.40;;;;;;;;;;5033874;28;20177;-88
2024/03/07 02:31:51;;;;;;;43.10;24.30;;;;;;;;;;5033686;28;20213;-88
2024/03/07 02:34:55;;;;;;;46.80;26.90;;;;;;;;;;5034564;28;20181;-88
2024/03/07 02:37:59;;;;;;;42.33;25.57;;;;;;;;;;5022376;28;20181;-88
2024/03/07 02:41:03;;;;;;;49.07;27.20;;;;;;;;;;5022035;28;20559;-88
2024/03/07 02:44:07;;;;;;;43.00;26.00;;;;;;;;;;5034319;28;21045;-88
2024/03/07 02:47:12;;;;;;;40.53;24.93;;;;;;;;;;5034264;28;20540;-87
2024/03/07 02:50:16;;;;;;;41.07;24.83;;;;;;;;;;5034399;28;20216;-88
2024/03/07 02:53:19;;;;;;;46.43;27.63;;;;;;;;;;5033870;28;20177;-87
2024/03/07 02:56:24;;;;;;;46.17;28.27;;;;;;;;;;5011001;28;20185;-88
2024/03/07 02:59:29;;;;;;;47.33;27.60;;;;;;;;;;5033441;28;20185;-87
2024/03/07 03:02:33;;;;;;;52.43;30.37;;;;;;;;;;5010518;28;20242;-87
2024/03/07 03:05:37;;;;;;;52.27;29.50;;;;;;;;;;5010551;28;20540;-88
2024/03/07 03:08:41;;;;;;;50.37;28.83;;;;;;;;;;5033230;28;20177;-88
2024/03/07 03:11:45;;;;;;;45.43;28.93;;;;;;;;;;5021858;28;20690;-88
2024/03/07 03:14:49;;;;;;;48.93;28.53;;;;;;;;;;5026149;28;20216;-88
2024/03/07 03:17:54;;;;;;;41.20;25.90;;;;;;;;;;5037338;28;20181;-88
2024/03/07 03:20:58;;;;;;;50.13;28.10;;;;;;;;;;5036717;28;20647;-89
2024/03/07 03:24:04;;;;;;;49.30;27.53;;;;;;;;;;5036718;28;20894;-90
2024/03/07 03:27:09;;;;;;;46.90;27.13;;;;;;;;;;5037114;28;21056;-90
2024/03/07 03:30:14;;;;;;;47.73;29.23;;;;;;;;;;5014261;28;20640;-89
2024/03/07 03:33:20;;;;;;;49.97;28.43;;;;;;;;;;5025328;28;20631;-89
2024/03/07 03:36:25;;;;;;;50.77;29.13;;;;;;;;;;5036279;28;20544;-89
2024/03/07 03:39:29;;;;;;;46.93;28.70;;;;;;;;;;5013857;28;20552;-89
2024/03/07 03:42:33;;;;;;;53.17;29.20;;;;;;;;;;5036203;28;20221;-90
2024/03/07 03:45:38;;;;;;;46.33;28.57;;;;;;;;;;5036801;28;20559;-90
2024/03/07 03:48:42;;;;;;;50.30;27.47;;;;;;;;;;5073677;23;20173;-87
2024/03/07 03:51:46;;;;;;;50.50;28.63;;;;;;;;;;4976563;28;20698;-88
2024/03/07 03:54:50;;;;;;;52.50;29.07;;;;;;;;;;4977707;28;20186;-88
2024/03/07 03:57:55;;;;;;;49.90;29.33;;;;;;;;;;4978254;28;20187;-88
2024/03/07 04:00:59;;;;;;;53.00;28.17;;;;;;;;;;4970072;28;20218;-88
2024/03/07 04:04:05;;;;;;;44.70;27.10;;;;;;;;;;4958950;29;20187;-87
2024/03/07 04:07:09;;;;;;;39.43;24.47;;;;;;;;;;4958947;29;20537;-88
2024/03/07 04:10:15;;;;;;;39.03;24.30;;;;;;;;;;4968778;28;20223;-88
2024/03/07 04:13:21;;;;;;;44.53;24.73;;;;;;;;;;4968933;28;20551;-88
2024/03/07 04:16:26;;;;;;;38.90;24.27;;;;;;;;;;4958713;29;21092;-88
2024/03/07 04:19:30;;;;;;;35.67;23.33;;;;;;;;;;4958639;29;20615;-88
2024/03/07 04:22:35;;;;;;;42.10;24.50;;;;;;;;;;4980826;28;20675;-87
2024/03/07 04:25:39;;;;;;;46.50;25.90;;;;;;;;;;4968821;28;20191;-88
2024/03/07 04:28:43;;;;;;;44.60;26.60;;;;;;;;;;4958528;29;20548;-87
2024/03/07 04:31:47;;;;;;;44.87;26.70;;;;;;;;;;4980310;28;20183;-88
2024/03/07 04:34:52;;;;;;;49.77;27.87;;;;;;;;;;4979745;28;20559;-88
2024/03/07 04:37:57;;;;;;;50.03;28.00;;;;;;;;;;4958961;29;20881;-88
2024/03/07 04:41:03;;;;;;;48.87;28.67;;;;;;;;;;4958360;29;20554;-88
2024/03/07 04:44:07;;;;;;;51.93;28.87;;;;;;;;;;4969146;28;20552;-88
2024/03/07 04:47:12;;;;;;;48.00;29.27;;;;;;;;;;4959062;29;20544;-88
2024/03/07 04:50:19;;;;;;;51.67;28.30;;;;;;;;;;4968965;28;20642;-88
2024/03/07 04:53:24;;;;;;;51.47;27.70;;;;;;;;;;4958924;29;20183;-88
2024/03/07 04:56:28;;;;;;;50.63;28.23;;;;;;;;;;4980137;28;20535;-88
2024/03/07 04:59:33;;;;;;;50.80;28.30;;;;;;;;;;4958462;29;20631;-88
2024/03/07 05:02:37;;;;;;;46.70;27.97;;;;;;;;;;4968868;28;20591;-88
2024/03/07 05:05:41;;;;;;;48.23;26.73;;;;;;;;;;4979332;28;21123;-88
2024/03/07 05:08:45;;;;;;;45.77;27.47;;;;;;;;;;4968275;28;20539;-88
2024/03/07 05:11:53;;;;;;;47.53;28.13;;;;;;;;;;4957200;29;20535;-88
2024/03/07 05:14:57;;;;;;;47.17;27.50;;;;;;;;;;4968574;28;20543;-88
2024/03/07 05:18:02;;;;;;;48.50;28.27;;;;;;;;;;4979341;28;20882;-87
2024/03/07 05:21:30;;;;;;;48.57;27.50;;;;;;;;;;4958001;29;20547;-88
2024/03/07 05:24:32;;;;;;;47.07;28.57;;;;;;;;;;4968113;28;20544;-88
2024/03/07 05:27:36;;;;;;;51.70;27.60;;;;;;;;;;4957560;28;21107;-88
2024/03/07 05:30:40;;;;;;;51.30;29.33;;;;;;;;;;4958081;29;20630;-88
2024/03/07 05:33:44;;;;;;;52.87;28.40;;;;;;;;;;4957784;29;20552;-88
2024/03/07 05:36:48;;;;;;;46.03;27.13;;;;;;;;;;4979433;28;20547;-88
2024/03/07 05:39:52;;;;;;;45.17;26.90;;;;;;;;;;4958091;29;20630;-88
2024/03/07 05:42:57;;;;;;;49.80;28.60;;;;;;;;;;4958466;29;20949;-88
2024/03/07 05:46:02;;;;;;;44.83;27.70;;;;;;;;;;4958360;29;20553;-88
2024/03/07 05:49:07;;;;;;;47.80;27.50;;;;;;;;;;4957861;29;20643;-88
2024/03/07 05:52:11;;;;;;;48.00;28.83;;;;;;;;;;4969681;28;20543;-89
2024/03/07 05:55:18;;;;;;;47.00;27.37;;;;;;;;;;4979778;28;20562;-88
2024/03/07 05:58:22;;;;;;;48.47;27.37;;;;;;;;;;4957944;29;20544;-88
2024/03/07 06:01:27;;;;;;;43.90;26.93;;;;;;;;;;4979820;28;20543;-88
2024/03/07 06:04:32;;;;;;;48.60;27.73;;;;;;;;;;4968327;28;20544;-88
2024/03/07 06:07:36;;;;;;;48.37;27.00;;;;;;;;;;4968150;28;20184;-86
2024/03/07 06:10:42;;;;;;;47.67;27.67;;;;;;;;;;4967891;28;20238;-86
2024/03/07 06:13:49;;;;;;;48.53;28.50;;;;;;;;;;4968377;28;20547;-87
2024/03/07 06:16:53;;;;;;;44.57;26.73;;;;;;;;;;4958328;29;20569;-85
2024/03/07 06:19:59;;;;;;;50.00;28.13;;;;;;;;;;4957541;29;20727;-86
2024/03/07 06:23:05;;;;;;;43.93;26.30;;;;;;;;;;4967644;28;20203;-85
2024/03/07 06:26:16;;;;;;;49.70;27.30;;;;;;;;;;4956613;29;20184;-86
2024/03/07 06:29:21;;;;;;;45.17;27.63;;;;;;;;;;4978320;28;20638;-86
2024/03/07 06:32:26;;;;;;;44.60;27.33;;;;;;;;;;4978611;28;20172;-86
2024/03/07 06:35:30;;;;;;;48.47;27.50;;;;;;;;;;4967420;28;20179;-86
2024/03/07 06:38:35;;;;;;;48.20;27.13;;;;;;;;;;4966880;28;20530;-85
2024/03/07 06:41:39;;;;;;;46.47;28.20;;;;;;;;;;4956659;29;20644;-84
2024/03/07 06:44:44;;;;;;;47.83;28.27;;;;;;;;;;4978720;28;20179;-85
2024/03/07 06:47:49;;;;;;;42.20;26.57;;;;;;;;;;4959113;28;20648;-85
2024/03/07 06:50:53;;;;;;;42.13;26.47;;;;;;;;;;4960012;28;20727;-88
2024/03/07 06:53:58;;;;;;;48.83;27.63;;;;;;;;;;4960370;29;20187;-88
2024/03/07 06:57:02;;;;;;;48.53;27.57;;;;;;;;;;4972067;28;20542;-89
2024/03/07 07:00:10;;;;;;;50.03;28.60;;;;;;;;;;4959896;29;20223;-88
2024/03/07 07:03:16;;;;;;;47.40;28.17;;;;;;;;;;4960044;29;20215;-88
2024/03/07 07:06:21;;;;;;;46.17;27.07;;;;;;;;;;4982236;28;20192;-88
2024/03/07 07:09:25;;;;;;;45.30;27.13;;;;;;;;;;4959014;29;20227;-88
2024/03/07 07:12:29;;;;;;;52.50;28.30;;;;;;;;;;4981998;28;20540;-85
2024/03/07 07:15:34;;;;;;;50.03;27.07;;;;;;;;;;4959307;29;20547;-85
2024/03/07 07:18:38;;;;;;;46.37;26.67;;;;;;;;;;4959534;29;20633;-86
2024/03/07 07:21:43;;;;;;;48.63;27.43;;;;;;;;;;4960363;29;20550;-86
2024/03/07 07:24:47;;;;;;;46.80;27.43;;;;;;;;;;4970368;28;20188;-86
2024/03/07 07:27:53;;;;;;;48.37;27.47;;;;;;;;;;4981683;28;20187;-86
2024/03/07 07:30:56;;;;;;;47.53;28.47;;;;;;;;;;4970145;28;20688;-87
2024/03/07 07:34:01;;;;;;;43.83;26.07;;;;;;;;;;4981369;28;20183;-86
2024/03/07 07:37:05;;;;;;;42.03;26.43;;;;;;;;;;4958979;29;20187;-86
2024/03/07 07:40:14;;;;;;;53.53;31.60;;;;;;;;;;4969905;28;20219;-86
2024/03/07 07:43:19;;;;;;;54.23;31.60;;;;;;;;;;4981401;28;20208;-86
2024/03/07 07:46:23;;;;;;;44.87;27.47;;;;;;;;;;4969771;28;20184;-86
2024/03/07 07:49:28;;;;;;;45.37;26.33;;;;;;;;;;4969666;28;20568;-86
2024/03/07 07:52:32;;;;;;;43.60;26.17;;;;;;;;;;4969884;28;20180;-87
2024/03/07 07:55:36;;;;;;;45.27;26.30;;;;;;;;;;4958475;29;20183;-86
2024/03/07 07:58:40;;;;;;;39.90;25.43;;;;;;;;;;4957259;28;20183;-86
2024/03/07 08:01:44;;;;;;;43.00;26.57;;;;;;;;;;4958641;28;20629;-86
2024/03/07 08:04:49;;;;;;;44.63;25.93;;;;;;;;;;4980620;28;20175;-86
2024/03/07 08:07:55;;;;;;;43.93;26.70;;;;;;;;;;4969129;28;20188;-86
2024/03/07 08:10:59;;;;;;;43.13;27.03;;;;;;;;;;4980241;28;20223;-86
2024/03/07 08:14:03;;;;;;;40.47;25.60;;;;;;;;;;4980693;28;20522;-87
2024/03/07 08:17:08;;;;;;;43.40;26.13;;;;;;;;;;4958212;29;20191;-87
2024/03/07 08:20:18;;;;;;;41.67;26.40;;;;;;;;;;4969047;28;20223;-87
2024/03/07 08:23:25;;;;;;;38.27;24.23;;;;;;;;;;4980195;28;20723;-86
2024/03/07 08:26:32;;;;;;;44.83;25.40;;;;;;;;;;4969735;28;20632;-86
2024/03/07 08:29:36;;;;;;;37.73;25.10;;;;;;;;;;4958934;29;20219;-86
2024/03/07 08:32:45;;;;;;;40.40;25.50;;;;;;;;;;4979815;28;20184;-87
2024/03/07 08:35:50;;;;;;;41.83;24.03;;;;;;;;;;4980211;28;20184;-87
2024/03/07 08:38:54;;;;;;;39.33;23.97;;;;;;;;;;4980441;28;20183;-87
2024/03/07 08:41:57;;;;;;;39.93;23.50;;;;;;;;;;4968438;28;20180;-87
2024/03/07 08:45:04;;;;;;;37.53;23.27;;;;;;;;;;4968701;28;20175;-87
2024/03/07 08:48:08;;;;;;;41.70;23.53;;;;;;;;;;4958469;29;20187;-87
2024/03/07 08:51:13;;;;;;;36.30;22.67;;;;;;;;;;4968274;28;20171;-87
2024/03/07 08:54:16;;;;;;;32.10;21.43;;;;;;;;;;4968355;28;20183;-87
2024/03/07 08:57:21;;;;;;;35.10;23.10;;;;;;;;;;4957331;29;20179;-87
2024/03/07 09:00:26;;;;;;;32.23;21.37;;;;;;;;;;4957376;29;20223;-87
2024/03/07 09:03:31;;;;;;;31.13;20.23;;;;;;;;;;4968101;28;20211;-87
2024/03/07 09:06:36;;;;;;;37.03;22.40;;;;;;;;;;4957288;29;20188;-87
2024/03/07 09:09:45;;;;;;;32.03;20.23;;;;;;;;;;4967975;28;20223;-87
2024/03/07 09:12:51;;;;;;;32.90;19.83;;;;;;;;;;4968294;28;20180;-87
2024/03/07 09:15:55;;;;;;;32.40;20.47;;;;;;;;;;4957811;29;20184;-87
2024/03/07 09:18:59;;;;;;;29.73;19.80;;;;;;;;;;4957727;29;20215;-87
2024/03/07 09:22:03;;;;;;;31.17;18.93;;;;;;;;;;4957358;29;20187;-87
2024/03/07 09:25:08;;;;;;;34.30;22.97;;;;;;;;;;4968269;28;20183;-87
2024/03/07 09:28:12;;;;;;;31.63;20.80;;;;;;;;;;4957078;29;20191;-87
2024/03/07 09:31:16;;;;;;;28.57;19.60;;;;;;;;;;4957349;29;20214;-87
2024/03/07 09:34:21;;;;;;;26.97;17.00;;;;;;;;;;4968234;28;20186;-87
2024/03/07 09:37:25;;;;;;;29.03;17.60;;;;;;;;;;4979739;28;20624;-87
2024/03/07 09:40:29;;;;;;;27.33;17.10;;;;;;;;;;4967495;28;20223;-87
2024/03/07 09:43:34;;;;;;;28.30;18.60;;;;;;;;;;4968046;28;20211;-87
2024/03/07 09:46:39;;;;;;;32.80;18.57;;;;;;;;;;4958477;29;20188;-87
2024/03/07 09:49:45;;;;;;;30.23;18.13;;;;;;;;;;4967946;28;20226;-85
2024/03/07 09:52:50;;;;;;;27.43;18.30;;;;;;;;;;4967749;28;20191;-85
2024/03/07 09:55:54;;;;;;;27.40;17.10;;;;;;;;;;4967693;28;20502;-85
2024/03/07 09:58:59;;;;;;;26.07;17.87;;;;;;;;;;4967795;28;20608;-85
2024/03/07 10:02:05;;;;;;;25.80;17.80;;;;;;;;;;4957143;29;20183;-85
2024/03/07 10:05:13;;;;;;;29.50;17.60;;;;;;;;;;4956899;29;20184;-85
2024/03/07 10:08:17;;;;;;;24.43;15.93;;;;;;;;;;4978656;28;20187;-85
2024/03/07 10:11:23;;;;;;;23.23;15.40;;;;;;;;;;4967272;28;20180;-85
2024/03/07 10:14:27;;;;;;;26.93;16.67;;;;;;;;;;4978392;28;20175;-85
2024/03/07 10:17:31;;;;;;;24.67;15.73;;;;;;;;;;4966669;28;20183;-85
2024/03/07 10:20:36;;;;;;;24.87;16.97;;;;;;;;;;4978225;28;20565;-86
2024/03/07 10:23:40;;;;;;;25.03;16.00;;;;;;;;;;4955640;29;20215;-86
2024/03/07 10:26:45;;;;;;;26.93;15.47;;;;;;;;;;4956325;29;20541;-86
2024/03/07 10:29:52;;;;;;;28.90;15.93;;;;;;;;;;4967069;28;20223;-86
2024/03/07 10:32:57;;;;;;;22.93;14.53;;;;;;;;;;4945035;29;20180;-84
2024/03/07 10:36:01;;;;;;;23.47;14.20;;;;;;;;;;4978469;28;20183;-85
2024/03/07 10:39:16;;;;;;;21.93;14.13;;;;;;;;;;4966921;28;20223;-85
2024/03/07 10:42:21;;;;;;;20.30;12.57;;;;;;;;;;4966929;28;20180;-85
2024/03/07 10:45:28;;;;;;;25.23;15.10;;;;;;;;;;4956616;29;20510;-84
2024/03/07 10:48:39;;;;;;;19.83;13.23;;;;;;;;;;4955861;28;20191;-85
2024/03/07 10:51:52;;;;;;;24.60;16.07;;;;;;;;;;4966630;28;20191;-85
2024/03/07 10:55:22;;;;;;;25.40;17.20;;;;;;;;;;4966474;28;20171;-84
2024/03/07 10:58:42;;;;;;;27.23;16.67;;;;;;;;;;4956225;29;20184;-84
2024/03/07 11:01:49;;;;;;;27.53;17.57;;;;;;;;;;4955462;29;20545;-84
2024/03/07 11:04:55;;;;;;;25.40;17.00;;;;;;;;;;4955318;29;20676;-84
2024/03/07 11:08:06;;;;;;;33.50;19.10;;;;;;;;;;4955313;29;20183;-84
2024/03/07 11:11:12;;;;;;;26.43;15.97;;;;;;;;;;4966763;28;20183;-84
2024/03/07 11:14:17;;;;;;;27.03;16.33;;;;;;;;;;4955780;29;20184;-84
2024/03/07 11:17:22;;;;;;;19.47;12.87;;;;;;;;;;4967336;28;20191;-84
2024/03/07 11:20:33;;;;;;;20.33;13.47;;;;;;;;;;4966591;28;20704;-84
2024/03/07 11:23:44;;;;;;;22.07;13.77;;;;;;;;;;4955673;29;20791;-84
2024/03/07 11:26:50;;;;;;;17.10;11.80;;;;;;;;;;4955775;29;20187;-84
2024/03/07 11:29:56;;;;;;;16.80;11.93;;;;;;;;;;4966189;28;20722;-84
2024/03/07 11:33:02;;;;;;;16.10;10.80;;;;;;;;;;4978070;28;20640;-84
2024/03/07 11:36:15;;;;;;;17.97;11.40;;;;;;;;;;4958717;29;20180;-85
2024/03/07 11:39:41;;;;;;;16.57;11.13;;;;;;;;;;4958575;29;20215;-84
2024/03/07 11:42:49;;;;;;;16.73;10.47;;;;;;;;;;4959475;29;20506;-84
2024/03/07 11:45:53;;;;;;;14.77;10.33;;;;;;;;;;4980854;28;20633;-84
2024/03/07 11:48:59;;;;;;;17.13;11.13;;;;;;;;;;4958773;29;20219;-84
2024/03/07 11:52:11;;;;;;;14.70;10.43;;;;;;;;;;4969689;28;20187;-84
2024/03/07 11:55:16;;;;;;;16.70;11.53;;;;;;;;;;4980328;28;20176;-84
2024/03/07 11:58:21;;;;;;;17.50;10.97;;;;;;;;;;4980091;28;20184;-84
2024/03/07 12:01:29;;;;;;;16.87;11.27;;;;;;;;;;4958840;29;20188;-85
2024/03/07 12:04:34;;;;;;;17.77;12.40;;;;;;;;;;4980424;28;20219;-84
2024/03/07 12:07:38;;;;;;;20.97;12.67;;;;;;;;;;4957479;29;20226;-85
2024/03/07 12:10:44;;;;;;;19.17;12.97;;;;;;;;;;4958640;29;20218;-86
2024/03/07 12:13:48;;;;;;;19.63;13.17;;;;;;;;;;4957516;29;20187;-85
2024/03/07 12:16:53;;;;;;;19.70;12.93;;;;;;;;;;4958209;29;20184;-86
2024/03/07 12:20:01;;;;;;;19.93;13.20;;;;;;;;;;4969853;28;20228;-85
2024/03/07 12:23:11;;;;;;;20.87;14.37;;;;;;;;;;4958513;29;20175;-83
2024/03/07 12:26:20;;;;;;;22.70;15.40;;;;;;;;;;4969256;28;20180;-84
2024/03/07 12:29:25;;;;;;;21.67;14.27;;;;;;;;;;4957490;29;20215;-84
2024/03/07 12:32:31;;;;;;;22.40;14.90;;;;;;;;;;4979475;28;20188;-85
2024/03/07 12:35:35;;;;;;;22.90;15.23;;;;;;;;;;4957861;29;20176;-85
2024/03/07 12:38:41;;;;;;;23.30;14.57;;;;;;;;;;4968091;28;20187;-85
2024/03/07 12:41:46;;;;;;;20.53;14.43;;;;;;;;;;4968636;28;20534;-85
2024/03/07 12:44:51;;;;;;;22.70;14.60;;;;;;;;;;4978788;28;20207;-83
2024/03/07 12:47:56;;;;;;;23.17;13.73;;;;;;;;;;4957200;29;20183;-84
2024/03/07 12:51:01;;;;;;;22.77;14.10;;;;;;;;;;4967923;28;20227;-84
2024/03/07 12:54:05;;;;;;;19.83;14.20;;;;;;;;;;4958932;29;20184;-85
2024/03/07 12:57:10;;;;;;;22.40;14.40;;;;;;;;;;4968447;28;20187;-85
2024/03/07 13:00:21;;;;;;;24.93;15.87;;;;;;;;;;4957046;29;20231;-85
2024/03/07 13:03:29;;;;;;;22.83;14.70;;;;;;;;;;4957540;29;20180;-85
2024/03/07 13:06:34;;;;;;;29.67;15.83;;;;;;;;;;4957805;29;20191;-85
2024/03/07 13:09:44;;;;;;;23.37;15.03;;;;;;;;;;4958237;29;20219;-85
2024/03/07 13:12:51;;;;;;;23.87;15.87;;;;;;;;;;4980973;28;20176;-85
2024/03/07 13:15:56;;;;;;;24.33;14.57;;;;;;;;;;4968721;28;20520;-85
2024/03/07 13:19:04;;;;;;;21.60;14.17;;;;;;;;;;4979781;28;20223;-85
2024/03/07 13:22:11;;;;;;;22.47;13.63;;;;;;;;;;4968635;28;20179;-85
2024/03/07 13:25:20;;;;;;;26.33;13.87;;;;;;;;;;4968853;28;20215;-84
2024/03/07 13:28:25;;;;;;;20.50;12.17;;;;;;;;;;4958008;29;20180;-84
2024/03/07 13:31:30;;;;;;;16.97;12.00;;;;;;;;;;4969167;28;20187;-84
2024/03/07 13:34:34;;;;;;;16.47;11.47;;;;;;;;;;4969063;28;20183;-84
2024/03/07 13:37:38;;;;;;;17.63;10.63;;;;;;;;;;4979983;28;20188;-84
2024/03/07 13:40:43;;;;;;;17.03;11.87;;;;;;;;;;4979300;28;20215;-84
2024/03/07 13:43:48;;;;;;;16.33;11.03;;;;;;;;;;4957651;29;20183;-84
2024/03/07 13:46:54;;;;;;;17.20;11.10;;;;;;;;;;4957861;29;20188;-84
2024/03/07 13:49:59;;;;;;;19.07;11.93;;;;;;;;;;4979485;28;20227;-84
2024/03/07 13:53:12;;;;;;;15.40;11.13;;;;;;;;;;4957882;29;20184;-84
2024/03/07 13:56:39;;;;;;;16.60;10.60;;;;;;;;;;4967541;28;20196;-84
2024/03/07 14:00:20;;;;;;;16.67;10.60;;;;;;;;;;4967763;28;20569;-84
2024/03/07 14:04:00;;;;;;;17.77;10.77;;;;;;;;;;4967235;28;20175;-84
2024/03/07 14:07:15;;;;;;;17.93;11.20;;;;;;;;;;4956402;29;20183;-84
2024/03/07 14:11:01;;;;;;;16.43;10.60;;;;;;;;;;4956398;29;20219;-84
2024/03/07 14:14:32;;;;;;;15.97;10.20;;;;;;;;;;4956165;29;20637;-84
2024/03/07 14:18:00;;;;;;;15.60;10.73;;;;;;;;;;4968073;28;20187;-84
2024/03/07 14:21:48;;;;;;;15.70;10.30;;;;;;;;;;4967143;28;20529;-84
2024/03/07 14:25:19;;;;;;;15.07;10.63;;;;;;;;;;4967066;28;20212;-84
2024/03/07 14:28:47;;;;;;;16.97;11.17;;;;;;;;;;4957200;29;20183;-84
2024/03/07 14:31:52;;;;;;;17.23;11.13;;;;;;;;;;4956341;29;20179;-84
2024/03/07 14:35:25;;;;;;;18.87;11.47;;;;;;;;;;4966824;28;20187;-84
2024/03/07 14:38:43;;;;;;;15.67;10.33;;;;;;;;;;4963339;28;20216;-84
2024/03/07 14:42:04;;;;;;;17.03;10.87;;;;;;;;;;4956422;29;20184;-84
2024/03/07 14:45:13;;;;;;;15.53;10.70;;;;;;;;;;4955797;29;20207;-84
2024/03/07 14:48:18;;;;;;;18.63;11.60;;;;;;;;;;4955539;29;20180;-85
2024/03/07 14:51:22;;;;;;;28.73;11.33;;;;;;;;;;4966728;28;20180;-84
2024/03/07 14:54:26;;;;;;;19.10;11.80;;;;;;;;;;4955918;29;20625;-84
2024/03/07 14:57:30;;;;;;;17.37;11.33;;;;;;;;;;4955950;29;20530;-84
2024/03/07 15:00:41;;;;;;;22.47;12.20;;;;;;;;;;4955627;29;20695;-84
2024/03/07 15:03:45;;;;;;;18.17;12.27;;;;;;;;;;4966770;28;20184;-84
2024/03/07 15:06:52;;;;;;;17.87;11.30;;;;;;;;;;4966788;28;20641;-84
2024/03/07 15:09:58;;;;;;;18.50;11.23;;;;;;;;;;4959356;29;20664;-86
2024/03/07 15:13:05;;;;;;;16.57;11.33;;;;;;;;;;4980959;28;20529;-87
2024/03/07 15:16:09;;;;;;;20.17;12.40;;;;;;;;;;4959803;29;20180;-84
2024/03/07 15:19:14;;;;;;;19.23;12.90;;;;;;;;;;4958734;29;20227;-84
2024/03/07 15:22:20;;;;;;;19.30;13.00;;;;;;;;;;4970450;28;20183;-84
2024/03/07 15:25:24;;;;;;;20.27;13.03;;;;;;;;;;4948754;29;20553;-84
2024/03/07 15:28:30;;;;;;;18.50;12.07;;;;;;;;;;4960186;29;20187;-84
2024/03/07 15:31:34;;;;;;;20.17;12.83;;;;;;;;;;4960583;29;20187;-84
2024/03/07 15:34:38;;;;;;;17.37;12.40;;;;;;;;;;4960055;29;20172;-84
2024/03/07 15:37:46;;;;;;;19.60;12.30;;;;;;;;;;4981459;28;20179;-84
2024/03/07 15:41:00;;;;;;;17.73;12.60;;;;;;;;;;4958551;29;20223;-84
2024/03/07 15:44:06;;;;;;;20.93;12.73;;;;;;;;;;4959247;29;20524;-84
2024/03/07 15:47:10;;;;;;;18.93;12.53;;;;;;;;;;4959197;29;20172;-84
2024/03/07 15:50:18;;;;;;;18.27;12.50;;;;;;;;;;4969356;28;20230;-86
2024/03/07 15:53:23;;;;;;;21.90;13.87;;;;;;;;;;4969417;28;20184;-86
2024/03/07 15:56:27;;;;;;;22.30;13.50;;;;;;;;;;4965253;28;20196;-86
2024/03/07 15:59:31;;;;;;;22.70;14.10;;;;;;;;;;4963089;29;20219;-86
2024/03/07 16:02:37;;;;;;;19.90;13.27;;;;;;;;;;4973918;28;20184;-86
2024/03/07 16:05:43;;;;;;;25.90;14.30;;;;;;;;;;4963245;29;20211;-86
2024/03/07 16:08:47;;;;;;;27.90;14.27;;;;;;;;;;4962621;29;20191;-87
2024/03/07 16:11:53;;;;;;;20.63;13.57;;;;;;;;;;4973932;28;20179;-86
2024/03/07 16:14:57;;;;;;;22.83;13.27;;;;;;;;;;4963087;29;20180;-86
2024/03/07 16:18:02;;;;;;;22.20;14.03;;;;;;;;;;4973581;28;20183;-86
2024/03/07 16:21:06;;;;;;;23.87;13.53;;;;;;;;;;4962003;29;20545;-87
2024/03/07 16:24:10;;;;;;;23.40;14.17;;;;;;;;;;4950951;29;20209;-86
2024/03/07 16:27:15;;;;;;;24.47;13.77;;;;;;;;;;4973706;28;20180;-87
2024/03/07 16:30:21;;;;;;;21.30;14.07;;;;;;;;;;4967336;28;20224;-87
2024/03/07 16:33:28;;;;;;;23.97;14.67;;;;;;;;;;4981561;28;20184;-87
2024/03/07 16:36:33;;;;;;;21.63;13.87;;;;;;;;;;4966287;29;20176;-88
2024/03/07 16:39:37;;;;;;;22.43;14.40;;;;;;;;;;4966335;29;20211;-87
2024/03/07 16:42:53;;;;;;;22.80;14.90;;;;;;;;;;4989204;28;20191;-87
2024/03/07 16:45:57;;;;;;;24.00;14.60;;;;;;;;;;4977343;28;20212;-87
2024/03/07 16:49:02;;;;;;;23.80;14.87;;;;;;;;;;4988481;28;20222;-86
2024/03/07 16:52:09;;;;;;;27.80;14.60;;;;;;;;;;4978515;28;20183;-87
2024/03/07 16:55:14;;;;;;;21.63;14.40;;;;;;;;;;4989358;28;20179;-87
2024/03/07 16:58:18;;;;;;;24.97;15.33;;;;;;;;;;4966542;29;20632;-87
2024/03/07 17:01:23;;;;;;;27.83;14.87;;;;;;;;;;4955046;29;20180;-87
2024/03/07 17:04:28;;;;;;;30.33;15.87;;;;;;;;;;4976689;28;20183;-86
2024/03/07 17:07:33;;;;;;;29.67;15.77;;;;;;;;;;4987295;28;20180;-86
2024/03/07 17:10:40;;;;;;;36.17;19.40;;;;;;;;;;4975838;28;20219;-87
2024/03/07 17:13:44;;;;;;;45.47;27.50;;;;;;;;;;4965533;29;20184;-87
2024/03/07 17:16:49;;;;;;;34.07;19.03;;;;;;;;;;4986691;28;20175;-86
2024/03/07 17:19:53;;;;;;;33.47;21.53;;;;;;;;;;4986960;28;20561;-87
2024/03/07 17:23:00;;;;;;;27.93;16.67;;;;;;;;;;4975279;28;20632;-86
2024/03/07 17:26:05;;;;;;;24.77;14.63;;;;;;;;;;4975057;28;20207;-86
2024/03/07 17:29:09;;;;;;;23.13;14.77;;;;;;;;;;4974907;28;20227;-86
2024/03/07 17:32:16;;;;;;;26.13;17.47;;;;;;;;;;4964247;28;20179;-86
2024/03/07 17:35:20;;;;;;;22.83;14.00;;;;;;;;;;4963367;29;20176;-86
2024/03/07 17:38:24;;;;;;;23.90;14.43;;;;;;;;;;4973941;28;20203;-86
2024/03/07 17:41:29;;;;;;;24.00;15.50;;;;;;;;;;4985378;28;20187;-86
2024/03/07 17:44:37;;;;;;;24.30;14.40;;;;;;;;;;4963990;29;20184;-86
2024/03/07 17:47:41;;;;;;;23.27;14.47;;;;;;;;;;4984913;28;20184;-86
2024/03/07 17:50:46;;;;;;;20.93;13.20;;;;;;;;;;4973210;28;20231;-87
2024/03/07 17:53:50;;;;;;;20.63;13.60;;;;;;;;;;4973352;28;20637;-87
2024/03/07 17:56:54;;;;;;;29.10;15.63;;;;;;;;;;4962924;29;20180;-86
2024/03/07 18:00:00;;;;;;;31.03;18.67;;;;;;;;;;4972471;28;20227;-87
2024/03/07 18:03:05;;;;;;;28.47;15.63;;;;;;;;;;4983317;28;20183;-87